sensor_id;sensor_type;location;lat;lon;timestamp;P1;durP1;ratioP1;P2;durP2;ratioP2
55316;SDS011;41178;48.956;8.130;2023-06-10T00:03:50;8.57;;;4.88;;
55316;SDS011;41178;48.956;8.130;2023-06-10T00:08:53;8.30;;;5.15;;
55316;SDS011;41178;48.956;8.130;2023-06-10T00:13:56;5.68;;;5.18;;
55316;SDS011;41178;48.956;8.130;2023-06-10T00:18:59;8.55;;;5.28;;
55316;SDS011;41178;48.956;8.130;2023-06-10T00:24:04;6.25;;;5.20;;
55316;SDS011;41178;48.956;8.130;2023-06-10T00:29:07;5.60;;;4.90;;
55316;SDS011;41178;48.956;8.130;2023-06-10T00:34:09;6.18;;;5.22;;
55316;SDS011;41178;48.956;8.130;2023-06-10T00:39:11;5.95;;;5.10;;
55316;SDS011;41178;48.956;8.130;2023-06-10T00:44:13;6.95;;;5.07;;
55316;SDS011;41178;48.956;8.130;2023-06-10T00:49:15;10.98;;;5.80;;
55316;SDS011;41178;48.956;8.130;2023-06-10T00:54:18;7.15;;;5.60;;
55316;SDS011;41178;48.956;8.130;2023-06-10T00:59:20;6.28;;;5.68;;
55316;SDS011;41178;48.956;8.130;2023-06-10T01:04:22;5.93;;;5.20;;
55316;SDS011;41178;48.956;8.130;2023-06-10T01:09:31;6.85;;;5.50;;
55316;SDS011;41178;48.956;8.130;2023-06-10T01:14:37;6.57;;;5.68;;
55316;SDS011;41178;48.956;8.130;2023-06-10T01:19:40;7.47;;;5.50;;
55316;SDS011;41178;48.956;8.130;2023-06-10T01:24:42;6.93;;;5.10;;
55316;SDS011;41178;48.956;8.130;2023-06-10T01:29:54;5.82;;;5.28;;
55316;SDS011;41178;48.956;8.130;2023-06-10T01:35:31;8.93;;;5.65;;
55316;SDS011;41178;48.956;8.130;2023-06-10T01:40:33;6.30;;;5.70;;
55316;SDS011;41178;48.956;8.130;2023-06-10T01:45:35;7.57;;;5.60;;
55316;SDS011;41178;48.956;8.130;2023-06-10T01:50:37;6.70;;;6.07;;
55316;SDS011;41178;48.956;8.130;2023-06-10T01:55:39;8.20;;;6.03;;
55316;SDS011;41178;48.956;8.130;2023-06-10T02:00:40;6.43;;;5.82;;
55316;SDS011;41178;48.956;8.130;2023-06-10T02:05:43;6.47;;;5.88;;
55316;SDS011;41178;48.956;8.130;2023-06-10T02:10:45;8.05;;;6.22;;
55316;SDS011;41178;48.956;8.130;2023-06-10T02:15:47;8.40;;;6.35;;
55316;SDS011;41178;48.956;8.130;2023-06-10T02:20:48;8.25;;;5.82;;
55316;SDS011;41178;48.956;8.130;2023-06-10T02:25:50;8.05;;;6.65;;
55316;SDS011;41178;48.956;8.130;2023-06-10T02:30:52;8.93;;;6.20;;
55316;SDS011;41178;48.956;8.130;2023-06-10T02:35:54;7.47;;;6.20;;
55316;SDS011;41178;48.956;8.130;2023-06-10T02:40:56;7.30;;;6.50;;
55316;SDS011;41178;48.956;8.130;2023-06-10T02:45:58;6.90;;;6.20;;
55316;SDS011;41178;48.956;8.130;2023-06-10T02:51:00;7.67;;;6.93;;
55316;SDS011;41178;48.956;8.130;2023-06-10T02:56:02;8.85;;;6.45;;
55316;SDS011;41178;48.956;8.130;2023-06-10T03:01:04;6.60;;;5.90;;
55316;SDS011;41178;48.956;8.130;2023-06-10T03:06:06;7.33;;;6.10;;
55316;SDS011;41178;48.956;8.130;2023-06-10T03:11:08;7.20;;;6.27;;
55316;SDS011;41178;48.956;8.130;2023-06-10T03:16:09;7.23;;;5.90;;
55316;SDS011;41178;48.956;8.130;2023-06-10T03:21:13;8.07;;;7.27;;
55316;SDS011;41178;48.956;8.130;2023-06-10T03:26:15;7.00;;;6.30;;
55316;SDS011;41178;48.956;8.130;2023-06-10T03:31:17;10.60;;;5.80;;
55316;SDS011;41178;48.956;8.130;2023-06-10T03:36:19;6.80;;;5.80;;
55316;SDS011;41178;48.956;8.130;2023-06-10T03:41:21;6.50;;;5.90;;
55316;SDS011;41178;48.956;8.130;2023-06-10T03:46:23;7.87;;;6.17;;
55316;SDS011;41178;48.956;8.130;2023-06-10T03:51:25;11.67;;;6.57;;
55316;SDS011;41178;48.956;8.130;2023-06-10T03:56:27;7.83;;;6.20;;
55316;SDS011;41178;48.956;8.130;2023-06-10T04:01:29;6.30;;;5.70;;
55316;SDS011;41178;48.956;8.130;2023-06-10T04:06:32;6.83;;;6.03;;
55316;SDS011;41178;48.956;8.130;2023-06-10T04:11:35;7.53;;;6.33;;
55316;SDS011;41178;48.956;8.130;2023-06-10T04:16:37;6.47;;;5.67;;
55316;SDS011;41178;48.956;8.130;2023-06-10T04:21:39;6.45;;;5.63;;
55316;SDS011;41178;48.956;8.130;2023-06-10T04:26:41;7.22;;;5.75;;
55316;SDS011;41178;48.956;8.130;2023-06-10T04:31:43;9.43;;;6.07;;
55316;SDS011;41178;48.956;8.130;2023-06-10T04:36:45;7.68;;;6.18;;
55316;SDS011;41178;48.956;8.130;2023-06-10T04:41:46;6.13;;;5.53;;
55316;SDS011;41178;48.956;8.130;2023-06-10T04:46:48;8.52;;;6.03;;
55316;SDS011;41178;48.956;8.130;2023-06-10T04:51:50;7.93;;;5.77;;
55316;SDS011;41178;48.956;8.130;2023-06-10T04:56:52;7.23;;;6.00;;
55316;SDS011;41178;48.956;8.130;2023-06-10T05:01:55;6.97;;;6.10;;
55316;SDS011;41178;48.956;8.130;2023-06-10T05:06:58;7.00;;;6.32;;
55316;SDS011;41178;48.956;8.130;2023-06-10T05:12:00;7.13;;;6.43;;
55316;SDS011;41178;48.956;8.130;2023-06-10T05:17:02;7.43;;;6.43;;
55316;SDS011;41178;48.956;8.130;2023-06-10T05:22:03;9.43;;;6.45;;
55316;SDS011;41178;48.956;8.130;2023-06-10T05:27:05;12.88;;;6.10;;
55316;SDS011;41178;48.956;8.130;2023-06-10T05:32:08;6.40;;;5.65;;
55316;SDS011;41178;48.956;8.130;2023-06-10T05:37:10;7.18;;;6.47;;
55316;SDS011;41178;48.956;8.130;2023-06-10T05:42:12;7.00;;;6.30;;
55316;SDS011;41178;48.956;8.130;2023-06-10T05:47:14;6.75;;;5.97;;
55316;SDS011;41178;48.956;8.130;2023-06-10T05:52:16;7.57;;;6.45;;
55316;SDS011;41178;48.956;8.130;2023-06-10T05:57:18;6.50;;;5.80;;
55316;SDS011;41178;48.956;8.130;2023-06-10T06:02:19;6.53;;;5.68;;
55316;SDS011;41178;48.956;8.130;2023-06-10T06:07:21;5.50;;;4.90;;
55316;SDS011;41178;48.956;8.130;2023-06-10T06:12:23;6.93;;;4.85;;
55316;SDS011;41178;48.956;8.130;2023-06-10T06:17:25;5.45;;;4.95;;
55316;SDS011;41178;48.956;8.130;2023-06-10T06:22:26;5.90;;;4.82;;
55316;SDS011;41178;48.956;8.130;2023-06-10T06:27:28;5.55;;;4.70;;
55316;SDS011;41178;48.956;8.130;2023-06-10T06:32:30;4.90;;;4.40;;
55316;SDS011;41178;48.956;8.130;2023-06-10T06:37:32;5.35;;;4.85;;
55316;SDS011;41178;48.956;8.130;2023-06-10T06:42:33;5.30;;;4.75;;
55316;SDS011;41178;48.956;8.130;2023-06-10T06:47:35;5.72;;;5.13;;
55316;SDS011;41178;48.956;8.130;2023-06-10T06:52:37;5.05;;;4.55;;
55316;SDS011;41178;48.956;8.130;2023-06-10T06:57:39;5.10;;;4.60;;
55316;SDS011;41178;48.956;8.130;2023-06-10T07:02:40;5.30;;;4.72;;
55316;SDS011;41178;48.956;8.130;2023-06-10T07:07:42;4.63;;;4.15;;
55316;SDS011;41178;48.956;8.130;2023-06-10T07:12:44;6.78;;;4.40;;
55316;SDS011;41178;48.956;8.130;2023-06-10T07:17:46;5.20;;;4.55;;
55316;SDS011;41178;48.956;8.130;2023-06-10T07:22:48;9.25;;;5.20;;
55316;SDS011;41178;48.956;8.130;2023-06-10T07:27:49;7.53;;;4.85;;
55316;SDS011;41178;48.956;8.130;2023-06-10T07:32:51;5.50;;;4.25;;
55316;SDS011;41178;48.956;8.130;2023-06-10T07:37:53;6.47;;;4.72;;
55316;SDS011;41178;48.956;8.130;2023-06-10T07:42:55;5.30;;;4.75;;
55316;SDS011;41178;48.956;8.130;2023-06-10T07:47:56;5.80;;;4.75;;
55316;SDS011;41178;48.956;8.130;2023-06-10T07:52:58;5.93;;;4.90;;
55316;SDS011;41178;48.956;8.130;2023-06-10T07:58:00;4.88;;;4.38;;
55316;SDS011;41178;48.956;8.130;2023-06-10T08:03:02;5.60;;;4.75;;
55316;SDS011;41178;48.956;8.130;2023-06-10T08:08:04;5.20;;;4.30;;
55316;SDS011;41178;48.956;8.130;2023-06-10T08:13:07;5.78;;;5.07;;
55316;SDS011;41178;48.956;8.130;2023-06-10T08:18:09;5.47;;;4.55;;
55316;SDS011;41178;48.956;8.130;2023-06-10T08:23:11;4.35;;;3.95;;
55316;SDS011;41178;48.956;8.130;2023-06-10T08:28:13;4.57;;;4.00;;
55316;SDS011;41178;48.956;8.130;2023-06-10T08:33:15;4.72;;;4.07;;
55316;SDS011;41178;48.956;8.130;2023-06-10T08:38:16;4.15;;;3.70;;
55316;SDS011;41178;48.956;8.130;2023-06-10T08:43:36;3.58;;;3.28;;
55316;SDS011;41178;48.956;8.130;2023-06-10T08:48:43;3.67;;;3.22;;
55316;SDS011;41178;48.956;8.130;2023-06-10T08:54:12;6.18;;;3.83;;
55316;SDS011;41178;48.956;8.130;2023-06-10T08:59:14;4.68;;;4.20;;
55316;SDS011;41178;48.956;8.130;2023-06-10T09:04:20;9.48;;;4.13;;
55316;SDS011;41178;48.956;8.130;2023-06-10T09:09:22;5.22;;;3.97;;
55316;SDS011;41178;48.956;8.130;2023-06-10T09:14:25;4.72;;;3.53;;
55316;SDS011;41178;48.956;8.130;2023-06-10T09:19:27;4.40;;;3.55;;
55316;SDS011;41178;48.956;8.130;2023-06-10T09:24:30;3.97;;;3.67;;
55316;SDS011;41178;48.956;8.130;2023-06-10T09:29:44;4.28;;;3.88;;
55316;SDS011;41178;48.956;8.130;2023-06-10T09:34:48;4.18;;;3.78;;
55316;SDS011;41178;48.956;8.130;2023-06-10T09:40:07;4.25;;;3.85;;
55316;SDS011;41178;48.956;8.130;2023-06-10T09:45:10;4.20;;;3.80;;
55316;SDS011;41178;48.956;8.130;2023-06-10T09:50:12;4.25;;;3.85;;
55316;SDS011;41178;48.956;8.130;2023-06-10T09:55:15;4.65;;;3.85;;
55316;SDS011;41178;48.956;8.130;2023-06-10T10:00:17;4.15;;;3.60;;
55316;SDS011;41178;48.956;8.130;2023-06-10T10:05:19;4.22;;;3.83;;
55316;SDS011;41178;48.956;8.130;2023-06-10T10:10:25;6.20;;;4.05;;
55316;SDS011;41178;48.956;8.130;2023-06-10T10:15:28;4.35;;;3.95;;
55316;SDS011;41178;48.956;8.130;2023-06-10T10:20:33;4.05;;;3.50;;
55316;SDS011;41178;48.956;8.130;2023-06-10T10:25:38;5.22;;;4.10;;
55316;SDS011;41178;48.956;8.130;2023-06-10T10:30:45;4.20;;;3.72;;
55316;SDS011;41178;48.956;8.130;2023-06-10T10:35:50;4.40;;;4.00;;
55316;SDS011;41178;48.956;8.130;2023-06-10T10:40:53;6.53;;;3.83;;
55316;SDS011;41178;48.956;8.130;2023-06-10T10:46:01;5.05;;;3.83;;
55316;SDS011;41178;48.956;8.130;2023-06-10T10:51:05;4.00;;;3.67;;
55316;SDS011;41178;48.956;8.130;2023-06-10T10:56:07;4.40;;;4.00;;
55316;SDS011;41178;48.956;8.130;2023-06-10T11:06:22;5.55;;;4.63;;
55316;SDS011;41178;48.956;8.130;2023-06-10T11:11:25;5.82;;;4.03;;
55316;SDS011;41178;48.956;8.130;2023-06-10T11:16:29;5.13;;;3.65;;
55316;SDS011;41178;48.956;8.130;2023-06-10T11:21:31;4.32;;;3.88;;
55316;SDS011;41178;48.956;8.130;2023-06-10T11:26:33;4.10;;;3.70;;
55316;SDS011;41178;48.956;8.130;2023-06-10T11:31:39;4.45;;;3.80;;
55316;SDS011;41178;48.956;8.130;2023-06-10T11:36:43;3.90;;;3.50;;
55316;SDS011;41178;48.956;8.130;2023-06-10T11:41:47;3.90;;;3.60;;
55316;SDS011;41178;48.956;8.130;2023-06-10T11:46:50;3.65;;;3.33;;
55316;SDS011;41178;48.956;8.130;2023-06-10T11:51:52;5.65;;;3.80;;
55316;SDS011;41178;48.956;8.130;2023-06-10T11:56:57;3.42;;;3.13;;
55316;SDS011;41178;48.956;8.130;2023-06-10T12:02:00;4.30;;;3.67;;
55316;SDS011;41178;48.956;8.130;2023-06-10T12:07:02;4.25;;;3.85;;
55316;SDS011;41178;48.956;8.130;2023-06-10T12:12:04;6.13;;;3.83;;
55316;SDS011;41178;48.956;8.130;2023-06-10T12:17:10;6.20;;;3.83;;
55316;SDS011;41178;48.956;8.130;2023-06-10T12:22:11;5.18;;;3.65;;
55316;SDS011;41178;48.956;8.130;2023-06-10T12:27:14;9.02;;;3.85;;
55316;SDS011;41178;48.956;8.130;2023-06-10T12:32:16;4.45;;;3.63;;
55316;SDS011;41178;48.956;8.130;2023-06-10T12:37:18;4.03;;;3.30;;
55316;SDS011;41178;48.956;8.130;2023-06-10T12:42:21;4.18;;;3.33;;
55316;SDS011;41178;48.956;8.130;2023-06-10T12:47:34;6.93;;;3.60;;
55316;SDS011;41178;48.956;8.130;2023-06-10T12:52:37;4.07;;;3.35;;
55316;SDS011;41178;48.956;8.130;2023-06-10T12:57:47;6.35;;;3.30;;
55316;SDS011;41178;48.956;8.130;2023-06-10T13:02:49;3.95;;;3.55;;
55316;SDS011;41178;48.956;8.130;2023-06-10T13:07:52;3.53;;;3.17;;
55316;SDS011;41178;48.956;8.130;2023-06-10T13:12:53;3.80;;;3.05;;
55316;SDS011;41178;48.956;8.130;2023-06-10T13:17:56;3.67;;;3.38;;
55316;SDS011;41178;48.956;8.130;2023-06-10T13:22:58;3.40;;;3.10;;
55316;SDS011;41178;48.956;8.130;2023-06-10T13:27:59;3.70;;;3.20;;
55316;SDS011;41178;48.956;8.130;2023-06-10T13:33:01;6.63;;;4.03;;
55316;SDS011;41178;48.956;8.130;2023-06-10T13:38:03;3.53;;;3.20;;
55316;SDS011;41178;48.956;8.130;2023-06-10T13:43:04;5.05;;;3.28;;
55316;SDS011;41178;48.956;8.130;2023-06-10T13:48:06;3.35;;;2.75;;
55316;SDS011;41178;48.956;8.130;2023-06-10T13:53:08;5.65;;;3.72;;
55316;SDS011;41178;48.956;8.130;2023-06-10T13:58:10;3.17;;;2.80;;
55316;SDS011;41178;48.956;8.130;2023-06-10T14:03:11;3.30;;;3.00;;
55316;SDS011;41178;48.956;8.130;2023-06-10T14:08:13;3.47;;;3.08;;
55316;SDS011;41178;48.956;8.130;2023-06-10T14:13:15;3.33;;;3.03;;
55316;SDS011;41178;48.956;8.130;2023-06-10T14:18:17;3.55;;;2.85;;
55316;SDS011;41178;48.956;8.130;2023-06-10T14:23:19;3.50;;;3.00;;
55316;SDS011;41178;48.956;8.130;2023-06-10T14:28:21;3.22;;;2.92;;
55316;SDS011;41178;48.956;8.130;2023-06-10T14:33:22;4.30;;;3.25;;
55316;SDS011;41178;48.956;8.130;2023-06-10T14:38:24;6.55;;;3.60;;
55316;SDS011;41178;48.956;8.130;2023-06-10T14:43:26;3.60;;;3.20;;
55316;SDS011;41178;48.956;8.130;2023-06-10T14:48:28;4.88;;;3.30;;
55316;SDS011;41178;48.956;8.130;2023-06-10T14:53:29;4.05;;;3.35;;
55316;SDS011;41178;48.956;8.130;2023-06-10T14:58:31;3.80;;;3.28;;
55316;SDS011;41178;48.956;8.130;2023-06-10T15:03:33;3.55;;;3.20;;
55316;SDS011;41178;48.956;8.130;2023-06-10T15:08:34;5.65;;;3.38;;
55316;SDS011;41178;48.956;8.130;2023-06-10T15:13:37;3.65;;;3.33;;
55316;SDS011;41178;48.956;8.130;2023-06-10T15:18:38;3.88;;;3.50;;
55316;SDS011;41178;48.956;8.130;2023-06-10T15:23:40;3.75;;;3.45;;
55316;SDS011;41178;48.956;8.130;2023-06-10T15:28:42;3.58;;;3.25;;
55316;SDS011;41178;48.956;8.130;2023-06-10T15:33:43;4.63;;;3.47;;
55316;SDS011;41178;48.956;8.130;2023-06-10T15:38:48;8.65;;;3.10;;
55316;SDS011;41178;48.956;8.130;2023-06-10T15:43:49;3.55;;;3.13;;
55316;SDS011;41178;48.956;8.130;2023-06-10T15:48:51;3.55;;;3.25;;
55316;SDS011;41178;48.956;8.130;2023-06-10T15:53:54;3.85;;;2.95;;
55316;SDS011;41178;48.956;8.130;2023-06-10T15:58:56;6.50;;;3.65;;
55316;SDS011;41178;48.956;8.130;2023-06-10T16:03:58;2.83;;;2.60;;
55316;SDS011;41178;48.956;8.130;2023-06-10T16:09:00;2.97;;;2.75;;
55316;SDS011;41178;48.956;8.130;2023-06-10T16:14:01;3.70;;;2.70;;
55316;SDS011;41178;48.956;8.130;2023-06-10T16:19:03;3.20;;;3.00;;
55316;SDS011;41178;48.956;8.130;2023-06-10T16:24:06;8.70;;;3.30;;
55316;SDS011;41178;48.956;8.130;2023-06-10T16:29:09;3.08;;;2.78;;
55316;SDS011;41178;48.956;8.130;2023-06-10T16:34:11;3.22;;;2.92;;
55316;SDS011;41178;48.956;8.130;2023-06-10T16:39:12;4.20;;;2.90;;
55316;SDS011;41178;48.956;8.130;2023-06-10T16:44:14;4.57;;;3.03;;
55316;SDS011;41178;48.956;8.130;2023-06-10T16:49:18;3.33;;;2.90;;
55316;SDS011;41178;48.956;8.130;2023-06-10T16:54:20;5.30;;;2.97;;
55316;SDS011;41178;48.956;8.130;2023-06-10T16:59:21;4.38;;;3.00;;
55316;SDS011;41178;48.956;8.130;2023-06-10T17:04:23;5.07;;;3.15;;
55316;SDS011;41178;48.956;8.130;2023-06-10T17:09:25;5.03;;;3.05;;
55316;SDS011;41178;48.956;8.130;2023-06-10T17:14:27;3.78;;;3.00;;
55316;SDS011;41178;48.956;8.130;2023-06-10T17:19:30;5.97;;;3.08;;
55316;SDS011;41178;48.956;8.130;2023-06-10T17:24:31;3.35;;;3.05;;
55316;SDS011;41178;48.956;8.130;2023-06-10T17:29:33;3.05;;;2.75;;
55316;SDS011;41178;48.956;8.130;2023-06-10T17:34:35;2.80;;;2.60;;
55316;SDS011;41178;48.956;8.130;2023-06-10T17:39:36;3.55;;;2.92;;
55316;SDS011;41178;48.956;8.130;2023-06-10T17:44:38;4.43;;;3.05;;
55316;SDS011;41178;48.956;8.130;2023-06-10T17:49:40;4.30;;;3.22;;
55316;SDS011;41178;48.956;8.130;2023-06-10T17:54:42;3.70;;;3.08;;
55316;SDS011;41178;48.956;8.130;2023-06-10T17:59:43;4.55;;;2.92;;
55316;SDS011;41178;48.956;8.130;2023-06-10T18:04:46;4.25;;;3.08;;
55316;SDS011;41178;48.956;8.130;2023-06-10T18:09:47;6.18;;;2.80;;
55316;SDS011;41178;48.956;8.130;2023-06-10T18:14:49;4.25;;;3.25;;
55316;SDS011;41178;48.956;8.130;2023-06-10T18:19:51;5.40;;;3.17;;
55316;SDS011;41178;48.956;8.130;2023-06-10T18:24:53;4.90;;;3.42;;
55316;SDS011;41178;48.956;8.130;2023-06-10T18:29:54;4.85;;;3.08;;
55316;SDS011;41178;48.956;8.130;2023-06-10T18:34:56;5.55;;;3.22;;
55316;SDS011;41178;48.956;8.130;2023-06-10T18:39:58;3.45;;;3.00;;
55316;SDS011;41178;48.956;8.130;2023-06-10T18:44:59;4.57;;;3.38;;
55316;SDS011;41178;48.956;8.130;2023-06-10T18:50:01;4.18;;;3.45;;
55316;SDS011;41178;48.956;8.130;2023-06-10T18:55:03;3.45;;;2.80;;
55316;SDS011;41178;48.956;8.130;2023-06-10T19:00:05;3.47;;;2.88;;
55316;SDS011;41178;48.956;8.130;2023-06-10T19:05:08;3.55;;;2.97;;
55316;SDS011;41178;48.956;8.130;2023-06-10T19:10:11;3.72;;;3.05;;
55316;SDS011;41178;48.956;8.130;2023-06-10T19:15:13;6.63;;;3.10;;
55316;SDS011;41178;48.956;8.130;2023-06-10T19:20:15;3.75;;;3.10;;
55316;SDS011;41178;48.956;8.130;2023-06-10T19:25:17;5.15;;;3.22;;
55316;SDS011;41178;48.956;8.130;2023-06-10T19:30:20;8.98;;;3.45;;
55316;SDS011;41178;48.956;8.130;2023-06-10T19:35:22;3.17;;;2.80;;
55316;SDS011;41178;48.956;8.130;2023-06-10T19:40:24;3.90;;;3.10;;
55316;SDS011;41178;48.956;8.130;2023-06-10T19:45:25;4.78;;;3.20;;
55316;SDS011;41178;48.956;8.130;2023-06-10T19:50:27;3.47;;;3.17;;
55316;SDS011;41178;48.956;8.130;2023-06-10T19:55:29;4.25;;;2.75;;
55316;SDS011;41178;48.956;8.130;2023-06-10T20:00:30;3.28;;;3.00;;
55316;SDS011;41178;48.956;8.130;2023-06-10T20:05:32;3.30;;;3.00;;
55316;SDS011;41178;48.956;8.130;2023-06-10T20:10:34;4.03;;;3.03;;
55316;SDS011;41178;48.956;8.130;2023-06-10T20:15:36;3.05;;;2.75;;
55316;SDS011;41178;48.956;8.130;2023-06-10T20:20:37;4.95;;;2.72;;
55316;SDS011;41178;48.956;8.130;2023-06-10T20:25:39;3.65;;;3.28;;
55316;SDS011;41178;48.956;8.130;2023-06-10T20:30:41;3.92;;;3.00;;
55316;SDS011;41178;48.956;8.130;2023-06-10T20:35:43;4.30;;;2.83;;
55316;SDS011;41178;48.956;8.130;2023-06-10T20:40:44;3.65;;;3.05;;
55316;SDS011;41178;48.956;8.130;2023-06-10T20:45:46;4.43;;;3.38;;
55316;SDS011;41178;48.956;8.130;2023-06-10T20:50:48;4.97;;;3.10;;
55316;SDS011;41178;48.956;8.130;2023-06-10T20:55:50;4.22;;;3.20;;
55316;SDS011;41178;48.956;8.130;2023-06-10T21:00:52;3.83;;;3.30;;
55316;SDS011;41178;48.956;8.130;2023-06-10T21:05:53;7.25;;;3.63;;
55316;SDS011;41178;48.956;8.130;2023-06-10T21:10:55;4.57;;;2.97;;
55316;SDS011;41178;48.956;8.130;2023-06-10T21:15:57;3.55;;;3.25;;
55316;SDS011;41178;48.956;8.130;2023-06-10T21:20:59;4.75;;;3.40;;
55316;SDS011;41178;48.956;8.130;2023-06-10T21:26:01;5.43;;;3.22;;
55316;SDS011;41178;48.956;8.130;2023-06-10T21:31:05;3.60;;;3.30;;
55316;SDS011;41178;48.956;8.130;2023-06-10T21:36:07;3.50;;;3.20;;
55316;SDS011;41178;48.956;8.130;2023-06-10T21:41:09;4.15;;;3.58;;
55316;SDS011;41178;48.956;8.130;2023-06-10T21:46:12;4.55;;;3.70;;
55316;SDS011;41178;48.956;8.130;2023-06-10T21:51:14;3.90;;;3.40;;
55316;SDS011;41178;48.956;8.130;2023-06-10T21:56:16;3.60;;;3.30;;
55316;SDS011;41178;48.956;8.130;2023-06-10T22:01:19;5.30;;;4.03;;
55316;SDS011;41178;48.956;8.130;2023-06-10T22:06:21;4.07;;;3.67;;
55316;SDS011;41178;48.956;8.130;2023-06-10T22:11:23;3.92;;;3.63;;
55316;SDS011;41178;48.956;8.130;2023-06-10T22:16:25;4.53;;;4.03;;
55316;SDS011;41178;48.956;8.130;2023-06-10T22:21:27;5.53;;;3.92;;
55316;SDS011;41178;48.956;8.130;2023-06-10T22:26:30;4.00;;;3.60;;
55316;SDS011;41178;48.956;8.130;2023-06-10T22:31:51;4.47;;;3.88;;
55316;SDS011;41178;48.956;8.130;2023-06-10T22:36:54;4.57;;;3.35;;
55316;SDS011;41178;48.956;8.130;2023-06-10T22:41:56;4.57;;;3.90;;
55316;SDS011;41178;48.956;8.130;2023-06-10T22:46:57;4.00;;;3.63;;
55316;SDS011;41178;48.956;8.130;2023-06-10T22:51:59;4.05;;;3.58;;
55316;SDS011;41178;48.956;8.130;2023-06-10T22:57:01;5.40;;;3.60;;
55316;SDS011;41178;48.956;8.130;2023-06-10T23:02:02;3.92;;;3.53;;
55316;SDS011;41178;48.956;8.130;2023-06-10T23:07:04;4.03;;;3.63;;
55316;SDS011;41178;48.956;8.130;2023-06-10T23:12:06;4.68;;;3.67;;
55316;SDS011;41178;48.956;8.130;2023-06-10T23:17:08;4.32;;;3.92;;
55316;SDS011;41178;48.956;8.130;2023-06-10T23:22:11;4.53;;;3.80;;
55316;SDS011;41178;48.956;8.130;2023-06-10T23:27:13;4.13;;;3.70;;
55316;SDS011;41178;48.956;8.130;2023-06-10T23:32:21;4.05;;;3.70;;
55316;SDS011;41178;48.956;8.130;2023-06-10T23:37:23;4.28;;;3.88;;
55316;SDS011;41178;48.956;8.130;2023-06-10T23:42:27;4.10;;;3.70;;
55316;SDS011;41178;48.956;8.130;2023-06-10T23:47:28;4.80;;;4.40;;
55316;SDS011;41178;48.956;8.130;2023-06-10T23:52:30;4.13;;;3.72;;
55316;SDS011;41178;48.956;8.130;2023-06-10T23:57:32;5.22;;;4.30;;
